Time,TemperatureF,DewpointF,PressureIn,WindDirection,WindDirectionDegrees,WindSpeedMPH,WindSpeedGustMPH,Humidity,HourlyPrecipIn,Conditions,Clouds,dailyrainin,SoftwareType,DateUTC
2013-01-22 00:02:00,63.0,41.8,30.13,North,357,4.5,6.7,46,0.00,,,0.00,WUHU216WMR968SP,2013-01-22 08:02:00,
2013-01-22 00:07:00,62.6,41.5,30.13,North,357,3.6,6.7,46,0.00,,,0.00,WUHU216WMR968SP,2013-01-22 08:07:00,
2013-01-22 00:12:00,62.1,41.0,30.13,NNW,327,2.2,5.4,46,0.00,,,0.00,WUHU216WMR968SP,2013-01-22 08:12:00,
2013-01-22 00:17:00,62.1,41.0,30.13,NE,35,3.6,5.4,46,0.00,,,0.00,WUHU216WMR968SP,2013-01-22 08:17:00,
2013-01-22 00:22:00,62.4,41.3,30.13,North,3,0.0,5.4,46,0.00,,,0.00,WUHU216WMR968SP,2013-01-22 08:22:00,
2013-01-22 00:27:00,62.4,41.3,30.13,WNW,294,0.0,5.8,46,0.00,,,0.00,WUHU216WMR968SP,2013-01-22 08:27:00,
2013-01-22 00:32:00,61.7,40.7,30.13,NW,312,3.1,5.8,46,0.00,,,0.00,WUHU216WMR968SP,2013-01-22 08:32:00,
2013-01-22 00:37:00,61.3,40.3,30.13,NW,311,0.0,4.0,46,0.00,,,0.00,WUHU216WMR968SP,2013-01-22 08:37:00,
2013-01-22 00:42:00,60.6,40.2,30.13,NE,49,0.0,4.0,47,0.00,,,0.00,WUHU216WMR968SP,2013-01-22 08:42:00,
2013-01-22 00:47:00,60.4,40.0,30.13,ESE,111,0.0,5.8,47,0.00,,,0.00,WUHU216WMR968SP,2013-01-22 08:47:00,
2013-01-22 00:52:00,60.4,40.0,30.13,ENE,67,3.6,5.8,47,0.00,,,0.00,WUHU216WMR968SP,2013-01-22 08:52:00,
2013-01-22 00:57:00,60.4,40.0,30.13,ENE,67,0.0,5.4,47,0.00,,,0.00,WUHU216WMR968SP,2013-01-22 08:57:00,
2013-01-22 01:02:00,60.6,40.2,30.13,NNE,27,0.0,3.6,47,0.00,,,0.00,WUHU216WMR968SP,2013-01-22 09:02:00,
2013-01-22 01:07:00,61.0,40.0,30.13,ENE,68,2.7,4.0,46,0.00,,,0.00,WUHU216WMR968SP,2013-01-22 09:07:00,
2013-01-22 01:12:00,61.2,40.2,30.13,SSE,160,0.0,4.0,46,0.00,,,0.00,WUHU216WMR968SP,2013-01-22 09:12:00,
2013-01-22 01:17:00,61.0,40.0,30.13,WNW,295,0.0,3.6,46,0.00,,,0.00,WUHU216WMR968SP,2013-01-22 09:17:00,
2013-01-22 01:22:00,61.2,40.2,30.13,ESE,117,0.0,4.0,46,0.00,,,0.00,WUHU216WMR968SP,2013-01-22 09:22:00,
2013-01-22 01:27:00,61.0,40.0,30.13,East,79,2.2,4.0,46,0.00,,,0.00,WUHU216WMR968SP,2013-01-22 09:27:00,
2013-01-22 01:32:00,60.4,40.0,30.13,SW,222,2.2,4.0,47,0.00,,,0.00,WUHU216WMR968SP,2013-01-22 09:32:00,
2013-01-22 01:37:00,60.1,39.8,30.13,SW,223,0.0,4.0,47,0.00,,,0.00,WUHU216WMR968SP,2013-01-22 09:37:00,
2013-01-22 01:42:00,59.4,39.1,30.13,NW,315,2.7,4.0,47,0.00,,,0.00,WUHU216WMR968SP,2013-01-22 09:42:00,
2013-01-22 01:47:00,58.5,38.3,30.13,NNE,14,0.0,4.0,47,0.00,,,0.00,WUHU216WMR968SP,2013-01-22 09:47:00,
2013-01-22 01:52:00,57.9,37.7,30.16,North,4,0.0,0.0,47,0.00,,,0.00,WUHU216WMR968SP,2013-01-22 09:52:00,
2013-01-22 01:57:00,57.4,37.3,30.16,North,4,0.0,0.0,47,0.00,,,0.00,WUHU216WMR968SP,2013-01-22 09:57:00,
2013-01-22 02:02:00,57.0,36.9,30.16,North,4,0.0,0.0,47,0.00,,,0.00,WUHU216WMR968SP,2013-01-22 10:02:00,
2013-01-22 02:07:00,57.0,36.9,30.13,North,4,0.0,0.0,47,0.00,,,0.00,WUHU216WMR968SP,2013-01-22 10:07:00,
2013-01-22 02:12:00,58.1,37.9,30.13,ENE,77,2.2,3.1,47,0.00,,,0.00,WUHU216WMR968SP,2013-01-22 10:12:00,
2013-01-22 02:17:00,59.7,39.4,30.13,NE,42,2.2,4.0,47,0.00,,,0.00,WUHU216WMR968SP,2013-01-22 10:17:00,
2013-01-22 02:22:00,61.0,40.0,30.16,NNE,29,0.0,4.0,46,0.00,,,0.00,WUHU216WMR968SP,2013-01-22 10:22:00,
2013-01-22 02:27:00,61.7,40.7,30.16,East,92,2.2,3.6,46,0.00,,,0.00,WUHU216WMR968SP,2013-01-22 10:27:00,
2013-01-22 02:32:00,62.1,41.0,30.16,NE,35,0.0,3.6,46,0.00,,,0.00,WUHU216WMR968SP,2013-01-22 10:32:00,
2013-01-22 02:37:00,62.2,41.1,30.16,ESE,111,0.0,3.6,46,0.00,,,0.00,WUHU216WMR968SP,2013-01-22 10:37:00,
2013-01-22 02:42:00,61.9,40.8,30.16,SE,138,0.0,3.1,46,0.00,,,0.00,WUHU216WMR968SP,2013-01-22 10:42:00,
2013-01-22 02:47:00,61.3,40.3,30.16,West,261,0.0,3.1,46,0.00,,,0.00,WUHU216WMR968SP,2013-01-22 10:47:00,
2013-01-22 02:52:00,60.6,40.2,30.16,West,260,0.0,3.1,47,0.00,,,0.00,WUHU216WMR968SP,2013-01-22 10:52:00,
2013-01-22 02:57:00,60.4,40.0,30.16,NNE,15,3.6,6.3,47,0.00,,,0.00,WUHU216WMR968SP,2013-01-22 10:57:00,
2013-01-22 03:02:00,61.0,40.0,30.16,NNE,14,5.4,8.1,46,0.00,,,0.00,WUHU216WMR968SP,2013-01-22 11:02:00,
2013-01-22 03:07:00,61.2,40.2,30.16,North,2,3.6,8.1,46,0.00,,,0.00,WUHU216WMR968SP,2013-01-22 11:07:00,
2013-01-22 03:12:00,61.0,40.0,30.16,North,0,2.7,6.3,46,0.00,,,0.00,WUHU216WMR968SP,2013-01-22 11:12:00,
2013-01-22 03:17:00,60.6,40.2,30.16,NNE,28,2.2,5.4,47,0.00,,,0.00,WUHU216WMR968SP,2013-01-22 11:17:00,
2013-01-22 03:22:00,60.4,40.0,30.16,North,2,2.7,4.9,47,0.00,,,0.00,WUHU216WMR968SP,2013-01-22 11:22:00,
2013-01-22 03:27:00,60.6,40.2,30.16,North,3,2.2,4.0,47,0.00,,,0.00,WUHU216WMR968SP,2013-01-22 11:27:00,
2013-01-22 03:32:00,61.0,40.0,30.16,North,2,0.0,4.0,46,0.00,,,0.00,WUHU216WMR968SP,2013-01-22 11:32:00,
2013-01-22 03:37:00,61.0,40.0,30.16,North,2,0.0,4.0,46,0.00,,,0.00,WUHU216WMR968SP,2013-01-22 11:37:00,
2013-01-22 03:42:00,61.2,40.2,30.16,North,357,0.0,3.6,46,0.00,,,0.00,WUHU216WMR968SP,2013-01-22 11:42:00,
2013-01-22 03:47:00,61.0,40.0,30.16,North,357,0.0,2.7,46,0.00,,,0.00,WUHU216WMR968SP,2013-01-22 11:47:00,
2013-01-22 03:52:00,60.8,39.8,30.16,North,357,0.0,0.0,46,0.00,,,0.00,WUHU216WMR968SP,2013-01-22 11:52:00,
2013-01-22 03:57:00,60.3,39.9,30.16,North,357,0.0,0.0,47,0.00,,,0.00,WUHU216WMR968SP,2013-01-22 11:57:00,
2013-01-22 04:02:00,59.7,39.4,30.16,North,357,0.0,0.0,47,0.00,,,0.00,WUHU216WMR968SP,2013-01-22 12:02:00,
2013-01-22 04:07:00,59.5,39.2,30.13,North,357,0.0,0.0,47,0.00,,,0.00,WUHU216WMR968SP,2013-01-22 12:07:00,
2013-01-22 04:12:00,59.4,39.1,30.13,North,353,0.0,0.0,47,0.00,,,0.00,WUHU216WMR968SP,2013-01-22 12:12:00,
2013-01-22 04:17:00,59.7,39.4,30.13,North,6,0.0,4.0,47,0.00,,,0.00,WUHU216WMR968SP,2013-01-22 12:17:00,
2013-01-22 04:22:00,60.1,39.8,30.16,ESE,120,0.0,4.0,47,0.00,,,0.00,WUHU216WMR968SP,2013-01-22 12:22:00,
2013-01-22 04:28:00,59.9,39.6,30.16,SSW,206,0.0,3.6,47,0.00,,,0.00,WUHU216WMR968SP,2013-01-22 12:28:00,
2013-01-22 04:33:00,59.5,39.2,30.16,SE,145,0.0,3.6,47,0.00,,,0.00,WUHU216WMR968SP,2013-01-22 12:33:00,
2013-01-22 04:38:00,59.7,39.4,30.16,North,10,3.6,4.0,47,0.00,,,0.00,WUHU216WMR968SP,2013-01-22 12:38:00,
2013-01-22 04:43:00,61.5,40.5,30.16,NNE,12,4.0,5.8,46,0.00,,,0.00,WUHU216WMR968SP,2013-01-22 12:43:00,
2013-01-22 04:48:00,63.1,41.9,30.16,NNE,16,4.5,8.1,46,0.00,,,0.00,WUHU216WMR968SP,2013-01-22 12:48:00,
2013-01-22 04:53:00,63.9,42.7,30.13,NNE,12,3.1,8.1,46,0.00,,,0.00,WUHU216WMR968SP,2013-01-22 12:53:00,
2013-01-22 04:58:00,64.2,42.9,30.13,North,7,3.6,6.3,46,0.00,,,0.00,WUHU216WMR968SP,2013-01-22 12:58:00,
2013-01-22 05:03:00,64.6,42.7,30.13,North,9,0.0,4.0,45,0.00,,,0.00,WUHU216WMR968SP,2013-01-22 13:03:00,
2013-01-22 05:08:00,64.6,42.7,30.16,NW,324,0.0,4.0,45,0.00,,,0.00,WUHU216WMR968SP,2013-01-22 13:08:00,
2013-01-22 05:13:00,64.0,42.8,30.16,East,94,0.0,3.6,46,0.00,,,0.00,WUHU216WMR968SP,2013-01-22 13:13:00,
2013-01-22 05:18:00,63.9,42.7,30.16,NNE,15,0.0,3.6,46,0.00,,,0.00,WUHU216WMR968SP,2013-01-22 13:18:00,
2013-01-22 05:23:00,63.7,42.5,30.16,NNE,12,2.7,8.1,46,0.00,,,0.00,WUHU216WMR968SP,2013-01-22 13:23:00,
2013-01-22 05:28:00,63.3,42.1,30.16,NNE,33,0.0,8.1,46,0.00,,,0.00,WUHU216WMR968SP,2013-01-22 13:28:00,
2013-01-22 05:33:00,63.0,41.8,30.16,NNW,328,0.0,3.6,46,0.00,,,0.00,WUHU216WMR968SP,2013-01-22 13:33:00,
2013-01-22 05:38:00,62.2,41.1,30.16,NW,313,0.0,3.6,46,0.00,,,0.00,WUHU216WMR968SP,2013-01-22 13:38:00,
2013-01-22 05:43:00,61.3,40.3,30.16,NNW,330,4.0,5.4,46,0.00,,,0.00,WUHU216WMR968SP,2013-01-22 13:43:00,
2013-01-22 05:48:00,60.1,39.8,30.16,North,353,0.0,5.4,47,0.00,,,0.00,WUHU216WMR968SP,2013-01-22 13:48:00,
2013-01-22 05:53:00,59.4,39.1,30.16,North,353,0.0,4.0,47,0.00,,,0.00,WUHU216WMR968SP,2013-01-22 13:53:00,
2013-01-22 05:58:00,59.4,39.1,30.16,NNW,348,0.0,2.2,47,0.00,,,0.00,WUHU216WMR968SP,2013-01-22 13:58:00,
2013-01-22 06:03:00,59.9,39.6,30.16,NNW,341,0.0,4.0,47,0.00,,,0.00,WUHU216WMR968SP,2013-01-22 14:03:00,
2013-01-22 06:08:00,60.3,39.9,30.16,North,10,2.7,4.0,47,0.00,,,0.00,WUHU216WMR968SP,2013-01-22 14:08:00,
2013-01-22 06:13:00,60.8,39.8,30.16,SE,130,2.7,4.9,46,0.00,,,0.00,WUHU216WMR968SP,2013-01-22 14:13:00,
2013-01-22 06:18:00,61.2,40.2,30.16,ENE,72,2.7,4.9,46,0.00,,,0.00,WUHU216WMR968SP,2013-01-22 14:18:00,
2013-01-22 06:23:00,61.7,40.7,30.16,East,79,2.2,5.4,46,0.00,,,0.00,WUHU216WMR968SP,2013-01-22 14:23:00,
2013-01-22 06:28:00,61.7,40.7,30.16,ESE,123,0.0,5.4,46,0.00,,,0.00,WUHU216WMR968SP,2013-01-22 14:28:00,
2013-01-22 06:33:00,61.5,40.5,30.16,NNW,335,2.2,3.6,46,0.00,,,0.00,WUHU216WMR968SP,2013-01-22 14:33:00,
2013-01-22 06:38:00,61.7,40.7,30.16,SSE,150,0.0,3.6,46,0.00,,,0.00,WUHU216WMR968SP,2013-01-22 14:38:00,
2013-01-22 06:43:00,61.7,40.7,30.16,SW,234,0.0,4.5,46,0.00,,,0.00,WUHU216WMR968SP,2013-01-22 14:43:00,
2013-01-22 06:48:00,61.2,40.2,30.16,West,263,0.0,4.5,46,0.00,,,0.00,WUHU216WMR968SP,2013-01-22 14:48:00,
2013-01-22 06:53:00,60.4,40.0,30.16,NNW,341,0.0,2.7,47,0.00,,,0.00,WUHU216WMR968SP,2013-01-22 14:53:00,
2013-01-22 06:58:00,59.5,39.2,30.16,North,357,0.0,2.7,47,0.00,,,0.00,WUHU216WMR968SP,2013-01-22 14:58:00,
2013-01-22 07:03:00,59.2,38.9,30.16,East,93,3.1,4.0,47,0.00,,,0.00,WUHU216WMR968SP,2013-01-22 15:03:00,
2013-01-22 07:08:00,59.4,39.1,30.16,ESE,119,2.7,4.5,47,0.00,,,0.00,WUHU216WMR968SP,2013-01-22 15:08:00,
2013-01-22 07:13:00,59.7,39.4,30.16,ENE,74,4.9,7.2,47,0.00,,,0.00,WUHU216WMR968SP,2013-01-22 15:13:00,
2013-01-22 07:18:00,60.8,39.8,30.16,East,83,4.5,7.2,46,0.00,,,0.00,WUHU216WMR968SP,2013-01-22 15:18:00,
2013-01-22 07:23:00,61.7,40.7,30.16,ENE,73,4.9,6.3,46,0.00,,,0.00,WUHU216WMR968SP,2013-01-22 15:23:00,
2013-01-22 07:28:00,62.8,41.7,30.16,ENE,65,2.2,8.1,46,0.00,,,0.00,WUHU216WMR968SP,2013-01-22 15:28:00,
2013-01-22 07:33:00,63.5,42.3,30.16,ENE,76,4.0,8.1,46,0.00,,,0.00,WUHU216WMR968SP,2013-01-22 15:33:00,
2013-01-22 07:38:00,64.4,42.5,30.16,ENE,77,2.7,6.7,45,0.00,,,0.00,WUHU216WMR968SP,2013-01-22 15:38:00,
2013-01-22 07:43:00,65.1,43.2,30.16,East,89,2.2,5.8,45,0.00,,,0.00,WUHU216WMR968SP,2013-01-22 15:43:00,
2013-01-22 07:48:00,65.7,43.7,30.16,East,82,2.2,6.3,45,0.00,,,0.00,WUHU216WMR968SP,2013-01-22 15:48:00,
2013-01-22 07:53:00,66.2,44.2,30.16,East,81,3.6,6.3,45,0.00,,,0.00,WUHU216WMR968SP,2013-01-22 15:53:00,
2013-01-22 07:58:00,66.6,44.5,30.16,East,98,5.4,8.3,45,0.00,,,0.00,WUHU216WMR968SP,2013-01-22 15:58:00,
2013-01-22 08:03:00,66.9,44.8,30.16,ENE,64,4.0,8.3,45,0.00,,,0.00,WUHU216WMR968SP,2013-01-22 16:03:00,
2013-01-22 08:08:00,66.9,44.8,30.16,East,92,0.0,6.3,45,0.00,,,0.00,WUHU216WMR968SP,2013-01-22 16:08:00,
2013-01-22 08:13:00,67.1,45.0,30.16,ENE,66,3.1,5.8,45,0.00,,,0.00,WUHU216WMR968SP,2013-01-22 16:13:00,
2013-01-22 08:18:00,67.3,45.2,30.16,ENE,57,0.0,5.8,45,0.00,,,0.00,WUHU216WMR968SP,2013-01-22 16:18:00,
2013-01-22 08:23:00,67.3,45.2,30.16,SW,222,0.0,3.6,45,0.00,,,0.00,WUHU216WMR968SP,2013-01-22 16:23:00,
2013-01-22 08:28:00,66.7,44.6,30.16,SW,222,0.0,3.1,45,0.00,,,0.00,WUHU216WMR968SP,2013-01-22 16:28:00,
2013-01-22 08:34:00,66.6,44.5,30.16,WNW,291,0.0,2.2,45,0.00,,,0.00,WUHU216WMR968SP,2013-01-22 16:34:00,
2013-01-22 08:39:00,66.4,44.4,30.16,WSW,237,0.0,2.7,45,0.00,,,0.00,WUHU216WMR968SP,2013-01-22 16:39:00,
2013-01-22 08:44:00,66.2,44.2,30.16,NNW,333,0.0,2.7,45,0.00,,,0.00,WUHU216WMR968SP,2013-01-22 16:44:00,
2013-01-22 08:49:00,66.2,44.2,30.16,North,10,0.0,2.2,45,0.00,,,0.00,WUHU216WMR968SP,2013-01-22 16:49:00,
2013-01-22 08:54:00,66.6,44.5,30.16,North,3,0.0,0.0,45,0.00,,,0.00,WUHU216WMR968SP,2013-01-22 16:54:00,
2013-01-22 08:59:00,66.9,44.8,30.16,NNE,22,2.2,3.6,45,0.00,,,0.00,WUHU216WMR968SP,2013-01-22 16:59:00,
2013-01-22 09:04:00,67.5,45.4,30.16,NNE,14,2.7,4.9,45,0.00,,,0.00,WUHU216WMR968SP,2013-01-22 17:04:00,
2013-01-22 09:09:00,67.6,45.5,30.16,NNE,27,2.2,4.9,45,0.00,,,0.00,WUHU216WMR968SP,2013-01-22 17:09:00,
2013-01-22 09:14:00,68.2,46.0,30.16,NNE,27,0.0,3.1,45,0.00,,,0.00,WUHU216WMR968SP,2013-01-22 17:14:00,
2013-01-22 09:19:00,68.4,46.2,30.16,SW,217,2.2,3.6,45,0.00,,,0.00,WUHU216WMR968SP,2013-01-22 17:19:00,
2013-01-22 09:24:00,68.4,46.2,30.19,SW,227,2.2,4.0,45,0.00,,,0.00,WUHU216WMR968SP,2013-01-22 17:24:00,
2013-01-22 09:29:00,68.4,46.2,30.19,SW,225,0.0,4.0,45,0.00,,,0.00,WUHU216WMR968SP,2013-01-22 17:29:00,
2013-01-22 09:34:00,68.4,46.2,30.19,SW,233,0.0,4.0,45,0.00,,,0.00,WUHU216WMR968SP,2013-01-22 17:34:00,
2013-01-22 09:39:00,68.5,46.3,30.19,SW,232,0.0,4.0,45,0.00,,,0.00,WUHU216WMR968SP,2013-01-22 17:39:00,
2013-01-22 09:44:00,68.7,46.5,30.19,SW,231,0.0,0.0,45,0.00,,,0.00,WUHU216WMR968SP,2013-01-22 17:44:00,
2013-01-22 09:49:00,68.9,46.6,30.19,SSW,202,0.0,0.0,45,0.00,,,0.00,WUHU216WMR968SP,2013-01-22 17:49:00,
2013-01-22 09:54:00,69.1,46.8,30.19,SSW,201,0.0,0.0,45,0.00,,,0.00,WUHU216WMR968SP,2013-01-22 17:54:00,
2013-01-22 09:59:00,69.3,47.0,30.19,SSW,201,0.0,0.0,45,0.00,,,0.00,WUHU216WMR968SP,2013-01-22 17:59:00,
2013-01-22 10:04:00,69.6,47.3,30.19,SSW,201,0.0,0.0,45,0.00,,,0.00,WUHU216WMR968SP,2013-01-22 18:04:00,
2013-01-22 10:09:00,70.0,47.0,30.16,SSW,213,0.0,3.1,44,0.00,,,0.00,WUHU216WMR968SP,2013-01-22 18:09:00,
2013-01-22 10:14:00,70.5,47.5,30.16,NE,45,2.2,4.0,44,0.00,,,0.00,WUHU216WMR968SP,2013-01-22 18:14:00,
2013-01-22 10:19:00,71.4,48.3,30.16,NW,306,0.0,4.0,44,0.00,,,0.00,WUHU216WMR968SP,2013-01-22 18:19:00,
2013-01-22 10:24:00,71.8,48.7,30.16,ESE,114,4.0,5.4,44,0.00,,,0.00,WUHU216WMR968SP,2013-01-22 18:24:00,
2013-01-22 10:29:00,72.9,49.7,30.16,SE,130,2.2,5.8,44,0.00,,,0.00,WUHU216WMR968SP,2013-01-22 18:29:00,
2013-01-22 10:34:00,73.9,49.9,30.16,East,82,4.5,8.7,43,0.00,,,0.00,WUHU216WMR968SP,2013-01-22 18:34:00,
2013-01-22 10:39:00,74.8,50.8,30.16,NE,41,4.9,8.7,43,0.00,,,0.00,WUHU216WMR968SP,2013-01-22 18:39:00,
2013-01-22 10:44:00,75.6,51.5,30.16,ESE,116,3.1,6.7,43,0.00,,,0.00,WUHU216WMR968SP,2013-01-22 18:44:00,
2013-01-22 10:49:00,75.7,51.6,30.16,ENE,70,3.6,5.8,43,0.00,,,0.00,WUHU216WMR968SP,2013-01-22 18:49:00,
2013-01-22 10:54:00,75.9,51.8,30.16,East,80,5.4,8.3,43,0.00,,,0.00,WUHU216WMR968SP,2013-01-22 18:54:00,
2013-01-22 10:59:00,76.3,52.1,30.16,NE,39,2.7,8.3,43,0.00,,,0.00,WUHU216WMR968SP,2013-01-22 18:59:00,
2013-01-22 11:04:00,76.3,52.1,30.16,ESE,117,0.0,6.3,43,0.00,,,0.00,WUHU216WMR968SP,2013-01-22 19:04:00,
2013-01-22 11:09:00,76.6,52.4,30.13,NNE,29,2.2,6.3,43,0.00,,,0.00,WUHU216WMR968SP,2013-01-22 19:09:00,
2013-01-22 11:14:00,76.8,52.6,30.13,ENE,70,4.0,5.8,43,0.00,,,0.00,WUHU216WMR968SP,2013-01-22 19:14:00,
2013-01-22 11:19:00,77.2,52.9,30.13,North,7,0.0,5.8,43,0.00,,,0.00,WUHU216WMR968SP,2013-01-22 19:19:00,
2013-01-22 11:24:00,77.5,53.2,30.13,North,0,0.0,4.0,43,0.00,,,0.00,WUHU216WMR968SP,2013-01-22 19:24:00,
2013-01-22 11:29:00,77.7,53.4,30.13,NNE,16,2.7,4.0,43,0.00,,,0.00,WUHU216WMR968SP,2013-01-22 19:29:00,
2013-01-22 11:34:00,77.7,53.4,30.13,East,93,0.0,8.3,43,0.00,,,0.00,WUHU216WMR968SP,2013-01-22 19:34:00,
2013-01-22 11:39:00,78.1,53.8,30.13,East,98,2.7,8.3,43,0.00,,,0.00,WUHU216WMR968SP,2013-01-22 19:39:00,
2013-01-22 11:44:00,78.4,54.0,30.13,East,93,2.7,6.3,43,0.00,,,0.00,WUHU216WMR968SP,2013-01-22 19:44:00,
2013-01-22 11:49:00,78.6,54.2,30.13,ENE,78,2.7,6.3,43,0.00,,,0.00,WUHU216WMR968SP,2013-01-22 19:49:00,
2013-01-22 11:54:00,79.0,53.9,30.13,NNE,27,3.1,6.3,42,0.00,,,0.00,WUHU216WMR968SP,2013-01-22 19:54:00,
2013-01-22 11:59:00,79.2,54.1,30.13,ESE,103,2.7,4.0,42,0.00,,,0.00,WUHU216WMR968SP,2013-01-22 19:59:00,
2013-01-22 12:04:00,79.5,54.4,30.13,ESE,118,4.0,5.8,42,0.00,,,0.00,WUHU216WMR968SP,2013-01-22 20:04:00,
2013-01-22 12:09:00,79.5,54.4,30.10,NNE,22,2.2,9.2,42,0.00,,,0.00,WUHU216WMR968SP,2013-01-22 20:09:00,
2013-01-22 12:14:00,79.3,54.2,30.10,ESE,110,0.0,9.2,42,0.00,,,0.00,WUHU216WMR968SP,2013-01-22 20:14:00,
2013-01-22 12:19:00,79.3,54.2,30.10,North,1,3.1,8.1,42,0.00,,,0.00,WUHU216WMR968SP,2013-01-22 20:19:00,
2013-01-22 12:24:00,79.7,54.5,30.10,East,93,4.5,7.6,42,0.00,,,0.00,WUHU216WMR968SP,2013-01-22 20:24:00,
2013-01-22 12:29:00,79.7,54.5,30.10,East,88,3.1,7.6,42,0.00,,,0.00,WUHU216WMR968SP,2013-01-22 20:29:00,
2013-01-22 12:34:00,79.5,54.4,30.10,ENE,57,4.9,6.3,42,0.00,,,0.00,WUHU216WMR968SP,2013-01-22 20:34:00,
2013-01-22 12:39:00,79.5,54.4,30.10,SE,134,2.7,6.3,42,0.00,,,0.00,WUHU216WMR968SP,2013-01-22 20:39:00,
2013-01-22 12:44:00,79.5,54.4,30.10,SE,146,0.0,5.4,42,0.00,,,0.00,WUHU216WMR968SP,2013-01-22 20:44:00,
2013-01-22 12:49:00,79.9,54.7,30.10,ESE,122,4.5,6.3,42,0.00,,,0.00,WUHU216WMR968SP,2013-01-22 20:49:00,
2013-01-22 12:54:00,80.1,54.9,30.10,SSW,200,3.1,7.2,42,0.00,,,0.00,WUHU216WMR968SP,2013-01-22 20:54:00,
2013-01-22 12:59:00,80.4,55.2,30.10,SSW,199,3.1,7.2,42,0.00,,,0.00,WUHU216WMR968SP,2013-01-22 20:59:00,
2013-01-22 13:04:00,80.4,55.2,30.07,SSW,193,2.7,5.4,42,0.00,,,0.00,WUHU216WMR968SP,2013-01-22 21:04:00,
2013-01-22 13:09:00,80.6,55.4,30.07,SE,124,2.2,5.4,42,0.00,,,0.00,WUHU216WMR968SP,2013-01-22 21:09:00,
2013-01-22 13:14:00,80.8,55.5,30.07,SE,127,2.2,5.8,42,0.00,,,0.00,WUHU216WMR968SP,2013-01-22 21:14:00,
2013-01-22 13:19:00,81.0,55.7,30.07,SSW,202,0.0,5.8,42,0.00,,,0.00,WUHU216WMR968SP,2013-01-22 21:19:00,
2013-01-22 13:24:00,81.0,55.7,30.07,SW,233,3.1,4.0,42,0.00,,,0.00,WUHU216WMR968SP,2013-01-22 21:24:00,
2013-01-22 13:29:00,80.6,55.4,30.07,WSW,237,3.6,4.0,42,0.00,,,0.00,WUHU216WMR968SP,2013-01-22 21:29:00,
2013-01-22 13:34:00,80.1,54.9,30.07,SSW,201,0.0,4.0,42,0.00,,,0.00,WUHU216WMR968SP,2013-01-22 21:34:00,
2013-01-22 13:39:00,80.1,54.9,30.07,SSE,162,0.0,4.9,42,0.00,,,0.00,WUHU216WMR968SP,2013-01-22 21:39:00,
2013-01-22 13:44:00,79.9,54.7,30.07,SW,221,3.6,6.3,42,0.00,,,0.00,WUHU216WMR968SP,2013-01-22 21:44:00,
2013-01-22 13:49:00,79.7,54.5,30.07,SSW,194,3.1,6.3,42,0.00,,,0.00,WUHU216WMR968SP,2013-01-22 21:49:00,
2013-01-22 13:54:00,79.7,54.5,30.07,SW,214,3.1,5.8,42,0.00,,,0.00,WUHU216WMR968SP,2013-01-22 21:54:00,
2013-01-22 13:59:00,79.7,54.5,30.07,South,186,2.2,4.5,42,0.00,,,0.00,WUHU216WMR968SP,2013-01-22 21:59:00,
2013-01-22 14:04:00,79.7,54.5,30.07,SW,226,4.9,5.8,42,0.00,,,0.00,WUHU216WMR968SP,2013-01-22 22:04:00,
2013-01-22 14:09:00,79.2,54.1,30.07,SSW,193,3.1,5.8,42,0.00,,,0.00,WUHU216WMR968SP,2013-01-22 22:09:00,
2013-01-22 14:14:00,79.2,54.1,30.07,SSW,211,4.5,5.8,42,0.00,,,0.00,WUHU216WMR968SP,2013-01-22 22:14:00,
2013-01-22 14:19:00,79.2,54.1,30.07,NW,312,3.6,7.2,42,0.00,,,0.00,WUHU216WMR968SP,2013-01-22 22:19:00,
2013-01-22 14:24:00,78.8,53.7,30.07,WSW,239,2.7,7.2,42,0.00,,,0.00,WUHU216WMR968SP,2013-01-22 22:24:00,
2013-01-22 14:29:00,78.8,53.7,30.07,WNW,299,3.6,5.8,42,0.00,,,0.00,WUHU216WMR968SP,2013-01-22 22:29:00,
2013-01-22 14:34:00,78.8,53.7,30.07,WSW,238,3.6,7.6,42,0.00,,,0.00,WUHU216WMR968SP,2013-01-22 22:34:00,
2013-01-22 14:39:00,78.8,53.7,30.07,WSW,247,4.0,7.6,42,0.00,,,0.00,WUHU216WMR968SP,2013-01-22 22:39:00,
2013-01-22 14:44:00,78.8,53.7,30.07,WSW,255,4.5,7.6,42,0.00,,,0.00,WUHU216WMR968SP,2013-01-22 22:44:00,
2013-01-22 14:49:00,78.6,54.2,30.07,West,280,4.9,8.1,43,0.00,,,0.00,WUHU216WMR968SP,2013-01-22 22:49:00,
2013-01-22 14:54:00,78.4,54.0,30.07,SW,222,2.7,8.1,43,0.00,,,0.00,WUHU216WMR968SP,2013-01-22 22:54:00,
2013-01-22 14:59:00,78.3,53.9,30.07,WNW,290,3.6,4.9,43,0.00,,,0.00,WUHU216WMR968SP,2013-01-22 22:59:00,
2013-01-22 15:04:00,78.1,53.8,30.07,SW,233,2.7,5.4,43,0.00,,,0.00,WUHU216WMR968SP,2013-01-22 23:04:00,
2013-01-22 15:09:00,77.9,53.6,30.07,West,270,0.0,7.6,43,0.00,,,0.00,WUHU216WMR968SP,2013-01-22 23:09:00,
2013-01-22 15:14:00,77.5,53.2,30.07,NW,306,2.7,7.6,43,0.00,,,0.00,WUHU216WMR968SP,2013-01-22 23:14:00,
2013-01-22 15:19:00,77.4,53.1,30.07,SW,220,3.1,5.8,43,0.00,,,0.00,WUHU216WMR968SP,2013-01-22 23:19:00,
2013-01-22 15:25:00,77.4,53.1,30.07,WNW,295,2.7,4.0,43,0.00,,,0.00,WUHU216WMR968SP,2013-01-22 23:25:00,
2013-01-22 15:30:00,77.2,52.9,30.07,SW,226,2.2,4.0,43,0.00,,,0.00,WUHU216WMR968SP,2013-01-22 23:30:00,
2013-01-22 15:35:00,76.8,52.6,30.07,West,270,0.0,4.0,43,0.00,,,0.00,WUHU216WMR968SP,2013-01-22 23:35:00,
2013-01-22 15:40:00,76.6,52.4,30.07,SW,222,2.7,4.0,43,0.00,,,0.00,WUHU216WMR968SP,2013-01-22 23:40:00,
2013-01-22 15:45:00,76.5,52.3,30.07,SW,234,2.2,4.0,43,0.00,,,0.00,WUHU216WMR968SP,2013-01-22 23:45:00,
2013-01-22 15:50:00,76.3,52.1,30.07,SW,231,2.7,4.0,43,0.00,,,0.00,WUHU216WMR968SP,2013-01-22 23:50:00,
2013-01-22 15:55:00,76.1,51.9,30.07,SW,233,0.0,4.0,43,0.00,,,0.00,WUHU216WMR968SP,2013-01-22 23:55:00,
2013-01-22 16:00:00,75.7,51.6,30.07,SW,230,0.0,4.0,43,0.00,,,0.00,WUHU216WMR968SP,2013-01-23 00:00:00,
2013-01-22 16:05:00,75.4,51.3,30.07,SW,230,0.0,3.6,43,0.00,,,0.00,WUHU216WMR968SP,2013-01-23 00:05:00,
2013-01-22 16:10:00,75.2,51.1,30.07,SW,231,0.0,2.7,43,0.00,,,0.00,WUHU216WMR968SP,2013-01-23 00:10:00,
2013-01-22 16:15:00,74.7,50.7,30.07,SW,231,0.0,2.7,43,0.00,,,0.00,WUHU216WMR968SP,2013-01-23 00:15:00,
2013-01-22 16:20:00,74.1,50.1,30.07,SW,231,0.0,0.0,43,0.00,,,0.00,WUHU216WMR968SP,2013-01-23 00:20:00,
2013-01-22 16:25:00,73.8,49.9,30.07,SW,231,0.0,0.0,43,0.00,,,0.00,WUHU216WMR968SP,2013-01-23 00:25:00,
2013-01-22 16:30:00,73.2,49.9,30.07,SW,231,0.0,0.0,44,0.00,,,0.00,WUHU216WMR968SP,2013-01-23 00:30:00,
2013-01-22 16:35:00,72.9,49.7,30.07,SW,231,0.0,0.0,44,0.00,,,0.00,WUHU216WMR968SP,2013-01-23 00:35:00,
2013-01-22 16:40:00,72.3,49.1,30.07,SW,231,0.0,0.0,44,0.00,,,0.00,WUHU216WMR968SP,2013-01-23 00:40:00,
2013-01-22 16:45:00,71.8,48.7,30.07,SW,231,0.0,0.0,44,0.00,,,0.00,WUHU216WMR968SP,2013-01-23 00:45:00,
2013-01-22 16:50:00,71.4,48.3,30.07,SW,231,0.0,0.0,44,0.00,,,0.00,WUHU216WMR968SP,2013-01-23 00:50:00,
2013-01-22 16:55:00,71.1,48.0,30.07,SW,231,0.0,0.0,44,0.00,,,0.00,WUHU216WMR968SP,2013-01-23 00:55:00,
2013-01-22 17:00:00,70.5,47.5,30.07,SW,231,0.0,0.0,44,0.00,,,0.00,WUHU216WMR968SP,2013-01-23 01:00:00,
2013-01-22 17:05:00,70.0,47.0,30.07,SW,231,0.0,0.0,44,0.00,,,0.00,WUHU216WMR968SP,2013-01-23 01:05:00,
2013-01-22 17:10:00,69.4,47.1,30.07,SW,231,0.0,0.0,45,0.00,,,0.00,WUHU216WMR968SP,2013-01-23 01:10:00,
2013-01-22 17:15:00,69.1,46.8,30.07,SW,231,0.0,0.0,45,0.00,,,0.00,WUHU216WMR968SP,2013-01-23 01:15:00,
2013-01-22 17:20:00,68.7,46.5,30.07,SW,231,0.0,0.0,45,0.00,,,0.00,WUHU216WMR968SP,2013-01-23 01:20:00,
2013-01-22 17:25:00,68.2,46.0,30.07,SW,231,0.0,0.0,45,0.00,,,0.00,WUHU216WMR968SP,2013-01-23 01:25:00,
2013-01-22 17:30:00,67.8,45.6,30.07,SW,231,0.0,0.0,45,0.00,,,0.00,WUHU216WMR968SP,2013-01-23 01:30:00,
2013-01-22 17:35:00,66.9,44.8,30.10,SW,231,0.0,0.0,45,0.00,,,0.00,WUHU216WMR968SP,2013-01-23 01:35:00,
2013-01-22 17:40:00,66.6,44.5,30.10,SW,231,0.0,0.0,45,0.00,,,0.00,WUHU216WMR968SP,2013-01-23 01:40:00,
2013-01-22 17:45:00,66.4,44.4,30.10,SW,231,0.0,0.0,45,0.00,,,0.00,WUHU216WMR968SP,2013-01-23 01:45:00,
2013-01-22 17:50:00,66.4,44.4,30.10,SW,231,0.0,0.0,45,0.00,,,0.00,WUHU216WMR968SP,2013-01-23 01:50:00,
2013-01-22 17:55:00,66.2,44.2,30.10,SW,231,0.0,0.0,45,0.00,,,0.00,WUHU216WMR968SP,2013-01-23 01:55:00,
2013-01-22 18:00:00,66.2,44.2,30.10,SW,231,0.0,0.0,45,0.00,,,0.00,WUHU216WMR968SP,2013-01-23 02:00:00,
2013-01-22 18:05:00,66.0,44.0,30.10,NNE,12,2.2,3.6,45,0.00,,,0.00,WUHU216WMR968SP,2013-01-23 02:05:00,
2013-01-22 18:10:00,65.8,43.8,30.10,NNE,12,0.0,3.6,45,0.00,,,0.00,WUHU216WMR968SP,2013-01-23 02:10:00,
2013-01-22 18:15:00,65.8,43.8,30.10,NNE,12,0.0,3.6,45,0.00,,,0.00,WUHU216WMR968SP,2013-01-23 02:15:00,
2013-01-22 18:20:00,65.7,43.7,30.10,NNE,12,0.0,0.0,45,0.00,,,0.00,WUHU216WMR968SP,2013-01-23 02:20:00,
2013-01-22 18:25:00,65.5,43.5,30.10,NNE,12,0.0,0.0,45,0.00,,,0.00,WUHU216WMR968SP,2013-01-23 02:25:00,
2013-01-22 18:30:00,65.7,43.7,30.10,NNE,12,0.0,0.0,45,0.00,,,0.00,WUHU216WMR968SP,2013-01-23 02:30:00,
2013-01-22 18:35:00,65.7,43.7,30.10,NNE,12,0.0,0.0,45,0.00,,,0.00,WUHU216WMR968SP,2013-01-23 02:35:00,
2013-01-22 18:40:00,65.7,43.7,30.10,NNE,12,0.0,0.0,45,0.00,,,0.00,WUHU216WMR968SP,2013-01-23 02:40:00,
2013-01-22 18:45:00,65.1,43.2,30.10,NNE,12,0.0,0.0,45,0.00,,,0.00,WUHU216WMR968SP,2013-01-23 02:45:00,
2013-01-22 18:50:00,64.9,43.0,30.10,NNE,12,0.0,0.0,45,0.00,,,0.00,WUHU216WMR968SP,2013-01-23 02:50:00,
2013-01-22 18:55:00,64.9,43.0,30.10,NNE,12,0.0,0.0,45,0.00,,,0.00,WUHU216WMR968SP,2013-01-23 02:55:00,
2013-01-22 19:00:00,64.8,42.9,30.10,NNE,12,0.0,0.0,45,0.00,,,0.00,WUHU216WMR968SP,2013-01-23 03:00:00,
2013-01-22 19:05:00,64.6,42.7,30.13,NNE,12,0.0,0.0,45,0.00,,,0.00,WUHU216WMR968SP,2013-01-23 03:05:00,
2013-01-22 19:10:00,64.6,42.7,30.13,North,8,0.0,3.6,45,0.00,,,0.00,WUHU216WMR968SP,2013-01-23 03:10:00,
2013-01-22 19:15:00,65.1,43.2,30.13,NNE,19,3.6,4.0,45,0.00,,,0.00,WUHU216WMR968SP,2013-01-23 03:15:00,
2013-01-22 19:20:00,65.5,43.5,30.10,NNE,19,2.7,4.5,45,0.00,,,0.00,WUHU216WMR968SP,2013-01-23 03:20:00,
2013-01-22 19:25:00,65.5,43.5,30.10,NNE,20,4.0,6.3,45,0.00,,,0.00,WUHU216WMR968SP,2013-01-23 03:25:00,
2013-01-22 19:30:00,65.5,43.5,30.10,NNE,19,4.0,6.3,45,0.00,,,0.00,WUHU216WMR968SP,2013-01-23 03:30:00,
2013-01-22 19:35:00,65.7,43.7,30.10,North,11,3.6,7.2,45,0.00,,,0.00,WUHU216WMR968SP,2013-01-23 03:35:00,
2013-01-22 19:40:00,65.7,43.7,30.10,North,4,2.2,7.2,45,0.00,,,0.00,WUHU216WMR968SP,2013-01-23 03:40:00,
2013-01-22 19:45:00,65.8,43.8,30.10,NNE,14,0.0,4.9,45,0.00,,,0.00,WUHU216WMR968SP,2013-01-23 03:45:00,
2013-01-22 19:50:00,65.8,43.8,30.10,NNE,20,2.7,4.9,45,0.00,,,0.00,WUHU216WMR968SP,2013-01-23 03:50:00,
2013-01-22 19:55:00,65.8,43.8,30.10,NNE,22,3.1,5.8,45,0.00,,,0.00,WUHU216WMR968SP,2013-01-23 03:55:00,
2013-01-22 20:00:00,65.8,43.8,30.10,NNE,20,3.6,5.8,45,0.00,,,0.00,WUHU216WMR968SP,2013-01-23 04:00:00,
2013-01-22 20:05:00,65.8,43.8,30.10,NNE,20,0.0,4.9,45,0.00,,,0.00,WUHU216WMR968SP,2013-01-23 04:05:00,
2013-01-22 20:10:00,65.7,43.7,30.10,NNE,20,0.0,4.0,45,0.00,,,0.00,WUHU216WMR968SP,2013-01-23 04:10:00,
2013-01-22 20:15:00,65.7,43.7,30.10,NNE,20,0.0,4.0,45,0.00,,,0.00,WUHU216WMR968SP,2013-01-23 04:15:00,
2013-01-22 20:20:00,65.5,43.5,30.10,NNE,20,0.0,0.0,45,0.00,,,0.00,WUHU216WMR968SP,2013-01-23 04:20:00,
2013-01-22 20:25:00,65.1,43.2,30.10,NNE,20,0.0,0.0,45,0.00,,,0.00,WUHU216WMR968SP,2013-01-23 04:25:00,
2013-01-22 20:30:00,64.9,43.0,30.10,NNE,20,0.0,3.1,45,0.00,,,0.00,WUHU216WMR968SP,2013-01-23 04:30:00,
2013-01-22 20:35:00,65.1,43.2,30.13,NNE,20,0.0,3.1,45,0.00,,,0.00,WUHU216WMR968SP,2013-01-23 04:35:00,
2013-01-22 20:40:00,64.9,43.0,30.13,NNE,18,0.0,2.2,45,0.00,,,0.00,WUHU216WMR968SP,2013-01-23 04:40:00,
2013-01-22 20:45:00,64.8,42.9,30.13,NNE,18,0.0,2.7,45,0.00,,,0.00,WUHU216WMR968SP,2013-01-23 04:45:00,
2013-01-22 20:50:00,64.8,42.9,30.13,NNE,18,0.0,2.7,45,0.00,,,0.00,WUHU216WMR968SP,2013-01-23 04:50:00,
2013-01-22 20:55:00,64.6,42.7,30.13,NNE,18,0.0,0.0,45,0.00,,,0.00,WUHU216WMR968SP,2013-01-23 04:55:00,
2013-01-22 21:01:00,64.6,42.7,30.13,NNE,18,0.0,0.0,45,0.00,,,0.00,WUHU216WMR968SP,2013-01-23 05:01:00,
2013-01-22 21:06:00,64.4,42.5,30.13,NNE,18,0.0,0.0,45,0.00,,,0.00,WUHU216WMR968SP,2013-01-23 05:06:00,
2013-01-22 21:11:00,63.5,42.3,30.13,NNE,18,0.0,0.0,46,0.00,,,0.00,WUHU216WMR968SP,2013-01-23 05:11:00,
2013-01-22 21:16:00,62.6,41.5,30.13,NNE,18,0.0,0.0,46,0.00,,,0.00,WUHU216WMR968SP,2013-01-23 05:16:00,
2013-01-22 21:22:00,62.2,41.1,30.13,NNE,18,0.0,2.7,46,0.00,,,0.00,WUHU216WMR968SP,2013-01-23 05:22:00,
2013-01-22 21:27:00,63.1,41.9,30.13,NNE,17,0.0,2.7,46,0.00,,,0.00,WUHU216WMR968SP,2013-01-23 05:27:00,
2013-01-22 21:32:00,64.0,42.8,30.13,NNE,17,0.0,3.6,46,0.00,,,0.00,WUHU216WMR968SP,2013-01-23 05:32:00,
2013-01-22 21:37:00,64.6,42.7,30.13,North,11,0.0,3.6,45,0.00,,,0.00,WUHU216WMR968SP,2013-01-23 05:37:00,
2013-01-22 21:42:00,64.4,42.5,30.13,North,11,0.0,2.7,45,0.00,,,0.00,WUHU216WMR968SP,2013-01-23 05:42:00,
2013-01-22 21:47:00,64.4,42.5,30.13,North,11,0.0,0.0,45,0.00,,,0.00,WUHU216WMR968SP,2013-01-23 05:47:00,
2013-01-22 21:52:00,64.4,42.5,30.13,North,11,0.0,0.0,45,0.00,,,0.00,WUHU216WMR968SP,2013-01-23 05:52:00,
2013-01-22 21:57:00,64.2,42.9,30.13,North,11,0.0,0.0,46,0.00,,,0.00,WUHU216WMR968SP,2013-01-23 05:57:00,
2013-01-22 22:02:00,64.0,42.8,30.13,North,11,0.0,0.0,46,0.00,,,0.00,WUHU216WMR968SP,2013-01-23 06:02:00,
2013-01-22 22:07:00,64.2,42.9,30.13,NNE,12,0.0,3.6,46,0.00,,,0.00,WUHU216WMR968SP,2013-01-23 06:07:00,
2013-01-22 22:12:00,64.4,42.5,30.13,NNE,14,0.0,3.6,45,0.00,,,0.00,WUHU216WMR968SP,2013-01-23 06:12:00,
2013-01-22 22:17:00,64.8,42.9,30.13,ENE,70,2.2,3.6,45,0.00,,,0.00,WUHU216WMR968SP,2013-01-23 06:17:00,
2013-01-22 22:22:00,65.5,43.5,30.13,ENE,70,0.0,3.6,45,0.00,,,0.00,WUHU216WMR968SP,2013-01-23 06:22:00,
2013-01-22 22:27:00,65.7,43.7,30.13,North,5,0.0,3.6,45,0.00,,,0.00,WUHU216WMR968SP,2013-01-23 06:27:00,
2013-01-22 22:32:00,65.3,43.4,30.13,North,0,0.0,3.6,45,0.00,,,0.00,WUHU216WMR968SP,2013-01-23 06:32:00,
2013-01-22 22:37:00,64.8,42.9,30.13,ESE,102,2.2,4.0,45,0.00,,,0.00,WUHU216WMR968SP,2013-01-23 06:37:00,
2013-01-22 22:42:00,64.2,42.9,30.13,NNE,29,0.0,4.0,46,0.00,,,0.00,WUHU216WMR968SP,2013-01-23 06:42:00,
2013-01-22 22:47:00,64.0,42.8,30.13,NNE,29,0.0,3.6,46,0.00,,,0.00,WUHU216WMR968SP,2013-01-23 06:47:00,
2013-01-22 22:52:00,63.3,42.1,30.13,NNE,29,0.0,0.0,46,0.00,,,0.00,WUHU216WMR968SP,2013-01-23 06:52:00,
2013-01-22 22:57:00,62.4,41.3,30.13,NNW,327,2.2,3.6,46,0.00,,,0.00,WUHU216WMR968SP,2013-01-23 06:57:00,
2013-01-22 23:02:00,61.9,40.8,30.13,North,353,0.0,3.6,46,0.00,,,0.00,WUHU216WMR968SP,2013-01-23 07:02:00,
2013-01-22 23:07:00,61.7,40.7,30.13,North,353,0.0,3.6,46,0.00,,,0.00,WUHU216WMR968SP,2013-01-23 07:07:00,
2013-01-22 23:12:00,61.3,40.3,30.13,North,353,0.0,0.0,46,0.00,,,0.00,WUHU216WMR968SP,2013-01-23 07:12:00,
2013-01-22 23:17:00,60.8,39.8,30.13,North,353,0.0,0.0,46,0.00,,,0.00,WUHU216WMR968SP,2013-01-23 07:17:00,
2013-01-22 23:22:00,60.4,40.0,30.13,North,353,0.0,0.0,47,0.00,,,0.00,WUHU216WMR968SP,2013-01-23 07:22:00,
2013-01-22 23:27:00,60.1,39.8,30.13,North,353,0.0,0.0,47,0.00,,,0.00,WUHU216WMR968SP,2013-01-23 07:27:00,
2013-01-22 23:32:00,59.7,39.4,30.13,North,353,0.0,0.0,47,0.00,,,0.00,WUHU216WMR968SP,2013-01-23 07:32:00,
2013-01-22 23:37:00,59.7,39.4,30.13,North,353,0.0,0.0,47,0.00,,,0.00,WUHU216WMR968SP,2013-01-23 07:37:00,
2013-01-22 23:42:00,59.5,39.2,30.13,North,353,0.0,0.0,47,0.00,,,0.00,WUHU216WMR968SP,2013-01-23 07:42:00,
2013-01-22 23:47:00,59.4,39.1,30.13,North,353,0.0,0.0,47,0.00,,,0.00,WUHU216WMR968SP,2013-01-23 07:47:00,
2013-01-22 23:52:00,59.4,39.1,30.13,North,353,0.0,0.0,47,0.00,,,0.00,WUHU216WMR968SP,2013-01-23 07:52:00,
2013-01-22 23:57:00,59.4,39.1,30.13,North,353,0.0,0.0,47,0.00,,,0.00,WUHU216WMR968SP,2013-01-23 07:57:00,